Aérodrome :
LOGIN :

S'inscrire | Disclaimer

   EN    FR    IT 

 










Légende :    VFR   VFR Marginal   IFR   IFR Intensif   IFR Très Intensif
Visi : 
Plafond : 
>= 8 km
>= 3000ft
5 à 8 km
1000 à 3000 ft
1500m à 5 km
500 à 1000 ft
800 à 1500m
200 à 500 ft
< 800m
< 200 ft
Symboles :   Orages  Brouillard  Fortes neiges  Fortes précipitations  Vent > 20 kt
SIGMETs :   Divers  Orages  Givrage  Turbulence  Onde Orograph.  Cendres Volcan.







- Altitude de l'aérodrome : 622 ft
- Code IATA : BRS
- Voir les cartes d'approche


EGGD - Bristol Int.

DERNIER METAR :
  • 222020Z AUTO 19011KT 9999 -RA FEW008 OVC027 13/12 Q1020

METARs EXPIRÉS :
  • 221950Z AUTO 19009KT 150V220 9999 -RA BKN007 OVC030 13/12 Q1020
  • 221920Z AUTO 17008KT 9999 -RA BKN008/// OVC030/// //////TCU 13/12 Q1020
  • 221850Z AUTO 17009KT 140V210 9999 -RA BKN009/// BKN016/// OVC030/// //////TCU 13/12 Q1019
  • 221820Z AUTO 18010KT 9999 -RA SCT011/// BKN025/// BKN037/// //////TCU 13/12 Q1019
  • 221750Z AUTO 18010KT 9999 -RA FEW022/// BKN033/// BKN048/// //////TCU 13/12 Q1019

TAF AMD TAF EGGD
Valide du 22 à 18h jusqu'au 23 à 18h UTC


221838Z 2218/2318 18010KT 9999 FEW030
TEMPO 2218/2220 8000 RA BKN009
BECMG 2220/2223 5000 -RADZ BKN005
TEMPO 2222/2308 1400 RADZ BKN002
BECMG 2307/2310 9999 NSW FEW020
ATIS : +44 1275 473 666
Pas de NOTAMs connus pour ce terrain.



MET'MAP, la Météo Aéronautique d'un coup d'oeil ! - Copyright ORBIFLY Décembre 2007 - Disclaimer

ORBIFLY MET'MAP TEAM :

Programmation & Développement : Alexandra Zaïnal
Conception & Développement : Baudouin d'Aumeries
Co-Programmation & Développement : Marc-Olivier Méhu
Soutien technique & logistique : Manuel Goepfert

Contact : metmap@orbifly.com




SOURCES & CREDITS :

   NOAA